sensor_id;sensor_type;location;lat;lon;timestamp;P1;durP1;ratioP1;P2;durP2;ratioP2
22675;SDS011;12521;43.310;21.876;2023-05-10T00:00:14;3.0;;;3.0;;
22675;SDS011;12521;43.310;21.876;2023-05-10T00:04:51;3.0;;;3.0;;
22675;SDS011;12521;43.310;21.876;2023-05-10T00:09:27;4.0;;;3.0;;
22675;SDS011;12521;43.310;21.876;2023-05-10T00:14:04;4.0;;;3.0;;
22675;SDS011;12521;43.310;21.876;2023-05-10T00:18:40;4.0;;;3.0;;
22675;SDS011;12521;43.310;21.876;2023-05-10T00:23:17;4.0;;;3.0;;
22675;SDS011;12521;43.310;21.876;2023-05-10T00:27:54;4.0;;;3.0;;
22675;SDS011;12521;43.310;21.876;2023-05-10T00:32:31;4.0;;;3.0;;
22675;SDS011;12521;43.310;21.876;2023-05-10T00:37:09;3.0;;;3.0;;
22675;SDS011;12521;43.310;21.876;2023-05-10T00:41:45;3.0;;;3.0;;
22675;SDS011;12521;43.310;21.876;2023-05-10T00:46:22;3.0;;;3.0;;
22675;SDS011;12521;43.310;21.876;2023-05-10T00:51:03;4.0;;;4.0;;
22675;SDS011;12521;43.310;21.876;2023-05-10T00:55:41;4.0;;;4.0;;
22675;SDS011;12521;43.310;21.876;2023-05-10T01:00:20;4.0;;;4.0;;
22675;SDS011;12521;43.310;21.876;2023-05-10T01:04:58;4.0;;;4.0;;
22675;SDS011;12521;43.310;21.876;2023-05-10T01:09:39;4.0;;;4.0;;
22675;SDS011;12521;43.310;21.876;2023-05-10T01:14:19;4.0;;;4.0;;
22675;SDS011;12521;43.310;21.876;2023-05-10T01:18:58;3.0;;;3.0;;
22675;SDS011;12521;43.310;21.876;2023-05-10T01:24:24;3.0;;;3.0;;
22675;SDS011;12521;43.310;21.876;2023-05-10T01:30:55;2.0;;;2.0;;
22675;SDS011;12521;43.310;21.876;2023-05-10T01:36:13;2.0;;;2.0;;
22675;SDS011;12521;43.310;21.876;2023-05-10T01:41:22;2.0;;;2.0;;
22675;SDS011;12521;43.310;21.876;2023-05-10T01:46:36;2.0;;;2.0;;
22675;SDS011;12521;43.310;21.876;2023-05-10T01:51:25;2.0;;;2.0;;
22675;SDS011;12521;43.310;21.876;2023-05-10T01:56:26;2.0;;;2.0;;
22675;SDS011;12521;43.310;21.876;2023-05-10T02:01:15;3.0;;;2.0;;
22675;SDS011;12521;43.310;21.876;2023-05-10T02:06:02;3.0;;;2.0;;
22675;SDS011;12521;43.310;21.876;2023-05-10T02:10:55;4.0;;;2.0;;
22675;SDS011;12521;43.310;21.876;2023-05-10T02:15:41;4.0;;;2.0;;
22675;SDS011;12521;43.310;21.876;2023-05-10T02:20:26;4.0;;;2.0;;
22675;SDS011;12521;43.310;21.876;2023-05-10T02:25:13;4.0;;;2.0;;
22675;SDS011;12521;43.310;21.876;2023-05-10T02:29:54;3.0;;;2.0;;
22675;SDS011;12521;43.310;21.876;2023-05-10T02:34:34;3.0;;;2.0;;
22675;SDS011;12521;43.310;21.876;2023-05-10T02:39:14;2.0;;;2.0;;
22675;SDS011;12521;43.310;21.876;2023-05-10T02:44:02;2.0;;;2.0;;
22675;SDS011;12521;43.310;21.876;2023-05-10T02:48:43;2.0;;;2.0;;
22675;SDS011;12521;43.310;21.876;2023-05-10T02:53:30;2.0;;;2.0;;
22675;SDS011;12521;43.310;21.876;2023-05-10T02:58:11;3.0;;;2.0;;
22675;SDS011;12521;43.310;21.876;2023-05-10T03:02:48;3.0;;;2.0;;
22675;SDS011;12521;43.310;21.876;2023-05-10T03:07:25;3.0;;;2.0;;
22675;SDS011;12521;43.310;21.876;2023-05-10T03:12:16;3.0;;;2.0;;
22675;SDS011;12521;43.310;21.876;2023-05-10T03:17:54;3.0;;;3.0;;
22675;SDS011;12521;43.310;21.876;2023-05-10T03:23:00;3.0;;;3.0;;
22675;SDS011;12521;43.310;21.876;2023-05-10T03:28:05;4.0;;;3.0;;
22675;SDS011;12521;43.310;21.876;2023-05-10T03:32:44;4.0;;;3.0;;
22675;SDS011;12521;43.310;21.876;2023-05-10T03:37:21;4.0;;;3.0;;
22675;SDS011;12521;43.310;21.876;2023-05-10T03:41:57;4.0;;;3.0;;
22675;SDS011;12521;43.310;21.876;2023-05-10T03:46:34;4.0;;;3.0;;
22675;SDS011;12521;43.310;21.876;2023-05-10T03:51:10;4.0;;;4.0;;
22675;SDS011;12521;43.310;21.876;2023-05-10T03:55:47;4.0;;;4.0;;
22675;SDS011;12521;43.310;21.876;2023-05-10T04:00:23;4.0;;;4.0;;
22675;SDS011;12521;43.310;21.876;2023-05-10T04:05:00;4.0;;;4.0;;
22675;SDS011;12521;43.310;21.876;2023-05-10T04:09:37;4.0;;;4.0;;
22675;SDS011;12521;43.310;21.876;2023-05-10T04:14:13;4.0;;;4.0;;
22675;SDS011;12521;43.310;21.876;2023-05-10T04:18:49;5.0;;;3.0;;
22675;SDS011;12521;43.310;21.876;2023-05-10T04:23:27;5.0;;;3.0;;
22675;SDS011;12521;43.310;21.876;2023-05-10T04:28:04;4.0;;;4.0;;
22675;SDS011;12521;43.310;21.876;2023-05-10T04:32:40;4.0;;;4.0;;
22675;SDS011;12521;43.310;21.876;2023-05-10T04:37:17;4.0;;;4.0;;
22675;SDS011;12521;43.310;21.876;2023-05-10T04:41:54;4.0;;;4.0;;
22675;SDS011;12521;43.310;21.876;2023-05-10T04:46:31;4.0;;;4.0;;
22675;SDS011;12521;43.310;21.876;2023-05-10T04:51:08;5.0;;;4.0;;
22675;SDS011;12521;43.310;21.876;2023-05-10T04:55:44;5.0;;;4.0;;
22675;SDS011;12521;43.310;21.876;2023-05-10T05:00:21;6.0;;;5.0;;
22675;SDS011;12521;43.310;21.876;2023-05-10T05:04:57;6.0;;;5.0;;
22675;SDS011;12521;43.310;21.876;2023-05-10T05:09:34;6.0;;;5.0;;
22675;SDS011;12521;43.310;21.876;2023-05-10T05:14:10;6.0;;;5.0;;
22675;SDS011;12521;43.310;21.876;2023-05-10T05:18:46;7.0;;;5.0;;
22675;SDS011;12521;43.310;21.876;2023-05-10T05:23:22;7.0;;;5.0;;
22675;SDS011;12521;43.310;21.876;2023-05-10T05:27:59;6.0;;;5.0;;
22675;SDS011;12521;43.310;21.876;2023-05-10T05:32:35;6.0;;;5.0;;
22675;SDS011;12521;43.310;21.876;2023-05-10T05:37:14;5.0;;;5.0;;
22675;SDS011;12521;43.310;21.876;2023-05-10T05:41:52;5.0;;;5.0;;
22675;SDS011;12521;43.310;21.876;2023-05-10T05:46:29;5.0;;;5.0;;
22675;SDS011;12521;43.310;21.876;2023-05-10T05:51:06;6.0;;;5.0;;
22675;SDS011;12521;43.310;21.876;2023-05-10T05:55:52;6.0;;;5.0;;
22675;SDS011;12521;43.310;21.876;2023-05-10T06:00:34;6.0;;;5.0;;
22675;SDS011;12521;43.310;21.876;2023-05-10T06:05:11;6.0;;;5.0;;
22675;SDS011;12521;43.310;21.876;2023-05-10T06:09:47;6.0;;;5.0;;
22675;SDS011;12521;43.310;21.876;2023-05-10T06:14:24;6.0;;;5.0;;
22675;SDS011;12521;43.310;21.876;2023-05-10T06:19:02;5.0;;;5.0;;
22675;SDS011;12521;43.310;21.876;2023-05-10T06:23:39;5.0;;;5.0;;
22675;SDS011;12521;43.310;21.876;2023-05-10T06:28:15;8.0;;;6.0;;
22675;SDS011;12521;43.310;21.876;2023-05-10T06:32:52;8.0;;;6.0;;
22675;SDS011;12521;43.310;21.876;2023-05-10T06:37:29;10.0;;;6.0;;
22675;SDS011;12521;43.310;21.876;2023-05-10T06:42:05;10.0;;;6.0;;
22675;SDS011;12521;43.310;21.876;2023-05-10T06:46:42;10.0;;;6.0;;
22675;SDS011;12521;43.310;21.876;2023-05-10T06:51:18;8.0;;;6.0;;
22675;SDS011;12521;43.310;21.876;2023-05-10T06:55:54;8.0;;;6.0;;
22675;SDS011;12521;43.310;21.876;2023-05-10T07:00:31;7.0;;;7.0;;
22675;SDS011;12521;43.310;21.876;2023-05-10T07:05:09;7.0;;;7.0;;
22675;SDS011;12521;43.310;21.876;2023-05-10T07:09:46;7.0;;;6.0;;
22675;SDS011;12521;43.310;21.876;2023-05-10T07:14:23;7.0;;;6.0;;
22675;SDS011;12521;43.310;21.876;2023-05-10T07:19:00;7.0;;;6.0;;
22675;SDS011;12521;43.310;21.876;2023-05-10T07:23:36;7.0;;;6.0;;
22675;SDS011;12521;43.310;21.876;2023-05-10T07:28:15;8.0;;;6.0;;
22675;SDS011;12521;43.310;21.876;2023-05-10T07:32:52;8.0;;;6.0;;
22675;SDS011;12521;43.310;21.876;2023-05-10T07:37:29;8.0;;;6.0;;
22675;SDS011;12521;43.310;21.876;2023-05-10T07:42:05;8.0;;;6.0;;
22675;SDS011;12521;43.310;21.876;2023-05-10T07:46:42;8.0;;;6.0;;
22675;SDS011;12521;43.310;21.876;2023-05-10T07:51:18;7.0;;;6.0;;
22675;SDS011;12521;43.310;21.876;2023-05-10T07:55:58;7.0;;;6.0;;
22675;SDS011;12521;43.310;21.876;2023-05-10T08:00:35;6.0;;;6.0;;
22675;SDS011;12521;43.310;21.876;2023-05-10T08:05:12;6.0;;;6.0;;
22675;SDS011;12521;43.310;21.876;2023-05-10T08:09:48;8.0;;;6.0;;
22675;SDS011;12521;43.310;21.876;2023-05-10T08:14:27;8.0;;;6.0;;
22675;SDS011;12521;43.310;21.876;2023-05-10T08:19:05;9.0;;;7.0;;
22675;SDS011;12521;43.310;21.876;2023-05-10T08:23:42;9.0;;;7.0;;
22675;SDS011;12521;43.310;21.876;2023-05-10T08:28:18;10.0;;;8.0;;
22675;SDS011;12521;43.310;21.876;2023-05-10T08:32:55;10.0;;;8.0;;
22675;SDS011;12521;43.310;21.876;2023-05-10T08:37:32;11.0;;;9.0;;
22675;SDS011;12521;43.310;21.876;2023-05-10T08:42:09;11.0;;;9.0;;
22675;SDS011;12521;43.310;21.876;2023-05-10T08:46:59;11.0;;;9.0;;
22675;SDS011;12521;43.310;21.876;2023-05-10T08:51:54;14.0;;;12.0;;
22675;SDS011;12521;43.310;21.876;2023-05-10T08:56:40;14.0;;;12.0;;
22675;SDS011;12521;43.310;21.876;2023-05-10T09:01:21;16.0;;;14.0;;
22675;SDS011;12521;43.310;21.876;2023-05-10T09:06:02;16.0;;;14.0;;
22675;SDS011;12521;43.310;21.876;2023-05-10T09:10:42;14.0;;;12.0;;
22675;SDS011;12521;43.310;21.876;2023-05-10T09:15:22;14.0;;;12.0;;
22675;SDS011;12521;43.310;21.876;2023-05-10T09:20:03;11.0;;;9.0;;
22675;SDS011;12521;43.310;21.876;2023-05-10T09:24:43;11.0;;;9.0;;
22675;SDS011;12521;43.310;21.876;2023-05-10T09:29:20;10.0;;;8.0;;
22675;SDS011;12521;43.310;21.876;2023-05-10T09:33:56;10.0;;;8.0;;
22675;SDS011;12521;43.310;21.876;2023-05-10T09:38:46;9.0;;;6.0;;
22675;SDS011;12521;43.310;21.876;2023-05-10T09:43:28;9.0;;;6.0;;
22675;SDS011;12521;43.310;21.876;2023-05-10T09:48:14;10.0;;;8.0;;
22675;SDS011;12521;43.310;21.876;2023-05-10T09:52:54;10.0;;;8.0;;
22675;SDS011;12521;43.310;21.876;2023-05-10T09:57:39;12.0;;;10.0;;
22675;SDS011;12521;43.310;21.876;2023-05-10T10:02:17;12.0;;;10.0;;
22675;SDS011;12521;43.310;21.876;2023-05-10T10:07:04;12.0;;;10.0;;
22675;SDS011;12521;43.310;21.876;2023-05-10T10:11:41;11.0;;;8.0;;
22675;SDS011;12521;43.310;21.876;2023-05-10T10:16:18;11.0;;;8.0;;
22675;SDS011;12521;43.310;21.876;2023-05-10T10:20:58;10.0;;;7.0;;
22675;SDS011;12521;43.310;21.876;2023-05-10T10:25:37;10.0;;;7.0;;
22675;SDS011;12521;43.310;21.876;2023-05-10T10:30:29;8.0;;;6.0;;
22675;SDS011;12521;43.310;21.876;2023-05-10T10:35:17;8.0;;;6.0;;
22675;SDS011;12521;43.310;21.876;2023-05-10T10:39:56;7.0;;;6.0;;
22675;SDS011;12521;43.310;21.876;2023-05-10T10:44:37;7.0;;;6.0;;
22675;SDS011;12521;43.310;21.876;2023-05-10T10:49:15;8.0;;;8.0;;
22675;SDS011;12521;43.310;21.876;2023-05-10T10:53:51;8.0;;;8.0;;
22675;SDS011;12521;43.310;21.876;2023-05-10T10:58:31;10.0;;;9.0;;
22675;SDS011;12521;43.310;21.876;2023-05-10T11:03:12;10.0;;;9.0;;
22675;SDS011;12521;43.310;21.876;2023-05-10T11:07:54;12.0;;;10.0;;
22675;SDS011;12521;43.310;21.876;2023-05-10T11:12:52;12.0;;;10.0;;
22675;SDS011;12521;43.310;21.876;2023-05-10T11:17:38;13.0;;;10.0;;
22675;SDS011;12521;43.310;21.876;2023-05-10T11:22:15;13.0;;;10.0;;
22675;SDS011;12521;43.310;21.876;2023-05-10T11:26:53;13.0;;;10.0;;
22675;SDS011;12521;43.310;21.876;2023-05-10T11:31:32;10.0;;;8.0;;
22675;SDS011;12521;43.310;21.876;2023-05-10T11:36:21;10.0;;;8.0;;
22675;SDS011;12521;43.310;21.876;2023-05-10T11:41:05;7.0;;;6.0;;
22675;SDS011;12521;43.310;21.876;2023-05-10T11:45:45;7.0;;;6.0;;
22675;SDS011;12521;43.310;21.876;2023-05-10T11:50:22;18.0;;;14.0;;
22675;SDS011;12521;43.310;21.876;2023-05-10T11:54:59;18.0;;;14.0;;
22675;SDS011;12521;43.310;21.876;2023-05-10T11:59:36;29.0;;;21.0;;
22675;SDS011;12521;43.310;21.876;2023-05-10T12:04:13;29.0;;;21.0;;
22675;SDS011;12521;43.310;21.876;2023-05-10T12:08:50;20.0;;;15.0;;
22675;SDS011;12521;43.310;21.876;2023-05-10T12:13:26;20.0;;;15.0;;
22675;SDS011;12521;43.310;21.876;2023-05-10T12:18:04;12.0;;;9.0;;
22675;SDS011;12521;43.310;21.876;2023-05-10T12:22:49;12.0;;;9.0;;
22675;SDS011;12521;43.310;21.876;2023-05-10T12:27:32;13.0;;;8.0;;
22675;SDS011;12521;43.310;21.876;2023-05-10T12:32:09;13.0;;;8.0;;
22675;SDS011;12521;43.310;21.876;2023-05-10T12:36:50;13.0;;;8.0;;
22675;SDS011;12521;43.310;21.876;2023-05-10T12:41:28;14.0;;;8.0;;
22675;SDS011;12521;43.310;21.876;2023-05-10T12:46:08;14.0;;;8.0;;
22675;SDS011;12521;43.310;21.876;2023-05-10T12:50:50;14.0;;;10.0;;
22675;SDS011;12521;43.310;21.876;2023-05-10T12:55:27;14.0;;;10.0;;
22675;SDS011;12521;43.310;21.876;2023-05-10T13:00:07;13.0;;;11.0;;
22675;SDS011;12521;43.310;21.876;2023-05-10T13:04:48;13.0;;;11.0;;
22675;SDS011;12521;43.310;21.876;2023-05-10T13:09:26;11.0;;;10.0;;
22675;SDS011;12521;43.310;21.876;2023-05-10T13:14:03;11.0;;;10.0;;
22675;SDS011;12521;43.310;21.876;2023-05-10T13:18:40;9.0;;;8.0;;
22675;SDS011;12521;43.310;21.876;2023-05-10T13:23:16;9.0;;;8.0;;
22675;SDS011;12521;43.310;21.876;2023-05-10T13:27:52;11.0;;;10.0;;
22675;SDS011;12521;43.310;21.876;2023-05-10T13:32:29;11.0;;;10.0;;
22675;SDS011;12521;43.310;21.876;2023-05-10T13:37:05;11.0;;;10.0;;
22675;SDS011;12521;43.310;21.876;2023-05-10T13:41:42;13.0;;;11.0;;
22675;SDS011;12521;43.310;21.876;2023-05-10T13:46:19;13.0;;;11.0;;
22675;SDS011;12521;43.310;21.876;2023-05-10T13:50:56;12.0;;;10.0;;
22675;SDS011;12521;43.310;21.876;2023-05-10T13:55:32;12.0;;;10.0;;
22675;SDS011;12521;43.310;21.876;2023-05-10T14:00:12;11.0;;;8.0;;
22675;SDS011;12521;43.310;21.876;2023-05-10T14:04:51;11.0;;;8.0;;
22675;SDS011;12521;43.310;21.876;2023-05-10T14:09:28;12.0;;;9.0;;
22675;SDS011;12521;43.310;21.876;2023-05-10T14:14:04;12.0;;;9.0;;
22675;SDS011;12521;43.310;21.876;2023-05-10T14:18:41;14.0;;;10.0;;
22675;SDS011;12521;43.310;21.876;2023-05-10T14:23:18;14.0;;;10.0;;
22675;SDS011;12521;43.310;21.876;2023-05-10T14:27:55;14.0;;;11.0;;
22675;SDS011;12521;43.310;21.876;2023-05-10T14:32:31;14.0;;;11.0;;
22675;SDS011;12521;43.310;21.876;2023-05-10T14:37:11;14.0;;;11.0;;
22675;SDS011;12521;43.310;21.876;2023-05-10T14:41:50;15.0;;;12.0;;
22675;SDS011;12521;43.310;21.876;2023-05-10T14:46:26;15.0;;;12.0;;
22675;SDS011;12521;43.310;21.876;2023-05-10T14:51:03;32.0;;;24.0;;
22675;SDS011;12521;43.310;21.876;2023-05-10T14:55:39;32.0;;;24.0;;
22675;SDS011;12521;43.310;21.876;2023-05-10T15:00:18;49.0;;;37.0;;
22675;SDS011;12521;43.310;21.876;2023-05-10T15:04:57;49.0;;;37.0;;
22675;SDS011;12521;43.310;21.876;2023-05-10T15:09:34;42.0;;;33.0;;
22675;SDS011;12521;43.310;21.876;2023-05-10T15:14:11;42.0;;;33.0;;
22675;SDS011;12521;43.310;21.876;2023-05-10T15:18:48;36.0;;;29.0;;
22675;SDS011;12521;43.310;21.876;2023-05-10T15:23:25;36.0;;;29.0;;
22675;SDS011;12521;43.310;21.876;2023-05-10T15:28:01;32.0;;;25.0;;
22675;SDS011;12521;43.310;21.876;2023-05-10T15:32:40;32.0;;;25.0;;
22675;SDS011;12521;43.310;21.876;2023-05-10T15:37:16;32.0;;;25.0;;
22675;SDS011;12521;43.310;21.876;2023-05-10T15:41:53;27.0;;;21.0;;
22675;SDS011;12521;43.310;21.876;2023-05-10T15:46:30;27.0;;;21.0;;
22675;SDS011;12521;43.310;21.876;2023-05-10T15:51:07;27.0;;;20.0;;
22675;SDS011;12521;43.310;21.876;2023-05-10T15:55:43;27.0;;;20.0;;
22675;SDS011;12521;43.310;21.876;2023-05-10T16:00:19;27.0;;;20.0;;
22675;SDS011;12521;43.310;21.876;2023-05-10T16:04:56;27.0;;;20.0;;
22675;SDS011;12521;43.310;21.876;2023-05-10T16:09:32;28.0;;;20.0;;
22675;SDS011;12521;43.310;21.876;2023-05-10T16:14:09;28.0;;;20.0;;
22675;SDS011;12521;43.310;21.876;2023-05-10T16:18:45;29.0;;;21.0;;
22675;SDS011;12521;43.310;21.876;2023-05-10T16:23:21;29.0;;;21.0;;
22675;SDS011;12521;43.310;21.876;2023-05-10T16:27:59;35.0;;;25.0;;
22675;SDS011;12521;43.310;21.876;2023-05-10T16:32:37;35.0;;;25.0;;
22675;SDS011;12521;43.310;21.876;2023-05-10T16:37:13;35.0;;;25.0;;
22675;SDS011;12521;43.310;21.876;2023-05-10T16:41:50;41.0;;;29.0;;
22675;SDS011;12521;43.310;21.876;2023-05-10T16:46:27;41.0;;;29.0;;
22675;SDS011;12521;43.310;21.876;2023-05-10T16:51:04;44.0;;;30.0;;
22675;SDS011;12521;43.310;21.876;2023-05-10T16:55:41;44.0;;;30.0;;
22675;SDS011;12521;43.310;21.876;2023-05-10T17:00:18;46.0;;;32.0;;
22675;SDS011;12521;43.310;21.876;2023-05-10T17:04:56;46.0;;;32.0;;
22675;SDS011;12521;43.310;21.876;2023-05-10T17:09:33;42.0;;;31.0;;
22675;SDS011;12521;43.310;21.876;2023-05-10T17:14:09;42.0;;;31.0;;
22675;SDS011;12521;43.310;21.876;2023-05-10T17:18:46;38.0;;;30.0;;
22675;SDS011;12521;43.310;21.876;2023-05-10T17:23:23;38.0;;;30.0;;
22675;SDS011;12521;43.310;21.876;2023-05-10T17:27:59;29.0;;;24.0;;
22675;SDS011;12521;43.310;21.876;2023-05-10T17:32:36;29.0;;;24.0;;
22675;SDS011;12521;43.310;21.876;2023-05-10T17:37:12;29.0;;;24.0;;
22675;SDS011;12521;43.310;21.876;2023-05-10T17:41:48;20.0;;;19.0;;
22675;SDS011;12521;43.310;21.876;2023-05-10T17:46:25;20.0;;;19.0;;
22675;SDS011;12521;43.310;21.876;2023-05-10T17:51:01;22.0;;;19.0;;
22675;SDS011;12521;43.310;21.876;2023-05-10T17:55:40;22.0;;;19.0;;
22675;SDS011;12521;43.310;21.876;2023-05-10T18:00:18;25.0;;;19.0;;
22675;SDS011;12521;43.310;21.876;2023-05-10T18:04:56;25.0;;;19.0;;
22675;SDS011;12521;43.310;21.876;2023-05-10T18:09:32;24.0;;;18.0;;
22675;SDS011;12521;43.310;21.876;2023-05-10T18:14:09;24.0;;;18.0;;
22675;SDS011;12521;43.310;21.876;2023-05-10T18:18:46;24.0;;;18.0;;
22675;SDS011;12521;43.310;21.876;2023-05-10T18:23:23;24.0;;;18.0;;
22675;SDS011;12521;43.310;21.876;2023-05-10T18:28:00;19.0;;;14.0;;
22675;SDS011;12521;43.310;21.876;2023-05-10T18:32:36;19.0;;;14.0;;
22675;SDS011;12521;43.310;21.876;2023-05-10T18:37:13;19.0;;;14.0;;
22675;SDS011;12521;43.310;21.876;2023-05-10T18:41:49;14.0;;;11.0;;
22675;SDS011;12521;43.310;21.876;2023-05-10T18:46:25;14.0;;;11.0;;
22675;SDS011;12521;43.310;21.876;2023-05-10T18:51:02;16.0;;;12.0;;
22675;SDS011;12521;43.310;21.876;2023-05-10T18:55:38;16.0;;;12.0;;
22675;SDS011;12521;43.310;21.876;2023-05-10T19:00:15;17.0;;;12.0;;
22675;SDS011;12521;43.310;21.876;2023-05-10T19:04:52;17.0;;;12.0;;
22675;SDS011;12521;43.310;21.876;2023-05-10T19:09:28;16.0;;;12.0;;
22675;SDS011;12521;43.310;21.876;2023-05-10T19:14:04;16.0;;;12.0;;
22675;SDS011;12521;43.310;21.876;2023-05-10T19:18:42;14.0;;;11.0;;
22675;SDS011;12521;43.310;21.876;2023-05-10T19:23:19;14.0;;;11.0;;
22675;SDS011;12521;43.310;21.876;2023-05-10T19:27:56;14.0;;;12.0;;
22675;SDS011;12521;43.310;21.876;2023-05-10T19:32:33;14.0;;;12.0;;
22675;SDS011;12521;43.310;21.876;2023-05-10T19:37:10;14.0;;;12.0;;
22675;SDS011;12521;43.310;21.876;2023-05-10T19:41:46;13.0;;;12.0;;
22675;SDS011;12521;43.310;21.876;2023-05-10T19:46:23;13.0;;;12.0;;
22675;SDS011;12521;43.310;21.876;2023-05-10T19:51:03;12.0;;;11.0;;
22675;SDS011;12521;43.310;21.876;2023-05-10T19:55:40;12.0;;;11.0;;
22675;SDS011;12521;43.310;21.876;2023-05-10T20:00:17;11.0;;;10.0;;
22675;SDS011;12521;43.310;21.876;2023-05-10T20:04:54;11.0;;;10.0;;
22675;SDS011;12521;43.310;21.876;2023-05-10T20:09:31;12.0;;;12.0;;
22675;SDS011;12521;43.310;21.876;2023-05-10T20:14:08;12.0;;;12.0;;
22675;SDS011;12521;43.310;21.876;2023-05-10T20:18:44;14.0;;;13.0;;
22675;SDS011;12521;43.310;21.876;2023-05-10T20:23:21;14.0;;;13.0;;
22675;SDS011;12521;43.310;21.876;2023-05-10T20:27:58;14.0;;;12.0;;
22675;SDS011;12521;43.310;21.876;2023-05-10T20:32:37;14.0;;;12.0;;
22675;SDS011;12521;43.310;21.876;2023-05-10T20:37:14;14.0;;;12.0;;
22675;SDS011;12521;43.310;21.876;2023-05-10T20:41:51;14.0;;;11.0;;
22675;SDS011;12521;43.310;21.876;2023-05-10T20:46:28;14.0;;;11.0;;
22675;SDS011;12521;43.310;21.876;2023-05-10T20:51:05;14.0;;;11.0;;
22675;SDS011;12521;43.310;21.876;2023-05-10T20:55:41;14.0;;;11.0;;
22675;SDS011;12521;43.310;21.876;2023-05-10T21:00:20;15.0;;;11.0;;
22675;SDS011;12521;43.310;21.876;2023-05-10T21:04:58;15.0;;;11.0;;
22675;SDS011;12521;43.310;21.876;2023-05-10T21:09:34;12.0;;;10.0;;
22675;SDS011;12521;43.310;21.876;2023-05-10T21:14:11;12.0;;;10.0;;
22675;SDS011;12521;43.310;21.876;2023-05-10T21:18:47;10.0;;;9.0;;
22675;SDS011;12521;43.310;21.876;2023-05-10T21:23:25;10.0;;;9.0;;
22675;SDS011;12521;43.310;21.876;2023-05-10T21:28:01;10.0;;;9.0;;
22675;SDS011;12521;43.310;21.876;2023-05-10T21:32:37;10.0;;;9.0;;
22675;SDS011;12521;43.310;21.876;2023-05-10T21:37:15;10.0;;;9.0;;
22675;SDS011;12521;43.310;21.876;2023-05-10T21:41:51;11.0;;;9.0;;
22675;SDS011;12521;43.310;21.876;2023-05-10T21:46:28;11.0;;;9.0;;
22675;SDS011;12521;43.310;21.876;2023-05-10T21:51:06;10.0;;;9.0;;
22675;SDS011;12521;43.310;21.876;2023-05-10T21:55:43;10.0;;;9.0;;
22675;SDS011;12521;43.310;21.876;2023-05-10T22:00:19;9.0;;;9.0;;
22675;SDS011;12521;43.310;21.876;2023-05-10T22:04:56;9.0;;;9.0;;
22675;SDS011;12521;43.310;21.876;2023-05-10T22:09:33;9.0;;;8.0;;
22675;SDS011;12521;43.310;21.876;2023-05-10T22:14:10;9.0;;;8.0;;
22675;SDS011;12521;43.310;21.876;2023-05-10T22:18:47;9.0;;;8.0;;
22675;SDS011;12521;43.310;21.876;2023-05-10T22:23:24;9.0;;;8.0;;
22675;SDS011;12521;43.310;21.876;2023-05-10T22:28:00;10.0;;;9.0;;
22675;SDS011;12521;43.310;21.876;2023-05-10T22:32:37;10.0;;;9.0;;
22675;SDS011;12521;43.310;21.876;2023-05-10T22:37:15;10.0;;;9.0;;
22675;SDS011;12521;43.310;21.876;2023-05-10T22:41:52;12.0;;;10.0;;
22675;SDS011;12521;43.310;21.876;2023-05-10T22:46:30;12.0;;;10.0;;
22675;SDS011;12521;43.310;21.876;2023-05-10T22:51:08;12.0;;;10.0;;
22675;SDS011;12521;43.310;21.876;2023-05-10T22:55:44;12.0;;;10.0;;
22675;SDS011;12521;43.310;21.876;2023-05-10T23:00:21;11.0;;;9.0;;
22675;SDS011;12521;43.310;21.876;2023-05-10T23:04:58;11.0;;;9.0;;
22675;SDS011;12521;43.310;21.876;2023-05-10T23:09:35;10.0;;;8.0;;
22675;SDS011;12521;43.310;21.876;2023-05-10T23:14:12;10.0;;;8.0;;
22675;SDS011;12521;43.310;21.876;2023-05-10T23:18:49;9.0;;;7.0;;
22675;SDS011;12521;43.310;21.876;2023-05-10T23:23:26;9.0;;;7.0;;
22675;SDS011;12521;43.310;21.876;2023-05-10T23:28:04;8.0;;;8.0;;
22675;SDS011;12521;43.310;21.876;2023-05-10T23:32:41;8.0;;;8.0;;
22675;SDS011;12521;43.310;21.876;2023-05-10T23:37:18;8.0;;;8.0;;
22675;SDS011;12521;43.310;21.876;2023-05-10T23:41:54;8.0;;;8.0;;
22675;SDS011;12521;43.310;21.876;2023-05-10T23:46:31;8.0;;;8.0;;
22675;SDS011;12521;43.310;21.876;2023-05-10T23:51:08;10.0;;;8.0;;
22675;SDS011;12521;43.310;21.876;2023-05-10T23:55:44;10.0;;;8.0;;
